sensor_id;sensor_type;location;lat;lon;timestamp;pressure;altitude;pressure_sealevel;temperature;humidity
23589;BME280;11972;48.078;11.876;2023-02-04T00:02:45;96236.13;;;3.68;100.00
23589;BME280;11972;48.078;11.876;2023-02-04T00:06:46;96218.78;;;3.67;100.00
23589;BME280;11972;48.078;11.876;2023-02-04T00:10:46;96210.13;;;3.67;100.00
23589;BME280;11972;48.078;11.876;2023-02-04T00:14:46;96220.69;;;3.65;100.00
23589;BME280;11972;48.078;11.876;2023-02-04T00:18:47;96222.59;;;3.63;100.00
23589;BME280;11972;48.078;11.876;2023-02-04T00:22:47;96234.13;;;3.61;100.00
23589;BME280;11972;48.078;11.876;2023-02-04T00:26:47;96246.22;;;3.62;100.00
23589;BME280;11972;48.078;11.876;2023-02-04T00:30:48;96236.34;;;3.65;100.00
23589;BME280;11972;48.078;11.876;2023-02-04T00:34:48;96258.09;;;3.66;100.00
23589;BME280;11972;48.078;11.876;2023-02-04T00:38:48;96253.97;;;3.63;100.00
23589;BME280;11972;48.078;11.876;2023-02-04T00:42:49;96269.63;;;3.63;100.00
23589;BME280;11972;48.078;11.876;2023-02-04T00:46:49;96265.00;;;3.67;100.00
23589;BME280;11972;48.078;11.876;2023-02-04T00:50:49;96280.41;;;3.70;100.00
23589;BME280;11972;48.078;11.876;2023-02-04T00:54:50;96271.88;;;3.68;100.00
23589;BME280;11972;48.078;11.876;2023-02-04T00:58:50;96272.09;;;3.65;100.00
23589;BME280;11972;48.078;11.876;2023-02-04T01:02:50;96254.78;;;3.64;100.00
23589;BME280;11972;48.078;11.876;2023-02-04T01:06:51;96266.88;;;3.65;100.00
23589;BME280;11972;48.078;11.876;2023-02-04T01:10:51;96274.63;;;3.66;100.00
23589;BME280;11972;48.078;11.876;2023-02-04T01:14:52;96317.25;;;3.67;100.00
23589;BME280;11972;48.078;11.876;2023-02-04T01:18:53;96296.13;;;3.59;100.00
23589;BME280;11972;48.078;11.876;2023-02-04T01:22:54;96312.72;;;3.58;100.00
23589;BME280;11972;48.078;11.876;2023-02-04T01:26:55;96304.41;;;3.53;100.00
23589;BME280;11972;48.078;11.876;2023-02-04T01:30:55;96285.66;;;3.47;100.00
23589;BME280;11972;48.078;11.876;2023-02-04T01:34:55;96289.47;;;3.43;100.00
23589;BME280;11972;48.078;11.876;2023-02-04T01:38:56;96298.25;;;3.42;100.00
23589;BME280;11972;48.078;11.876;2023-02-04T01:42:57;96293.97;;;3.41;100.00
23589;BME280;11972;48.078;11.876;2023-02-04T01:46:57;96308.72;;;3.42;100.00
23589;BME280;11972;48.078;11.876;2023-02-04T01:51:07;96300.28;;;3.39;100.00
23589;BME280;11972;48.078;11.876;2023-02-04T01:55:13;96303.25;;;3.34;100.00
23589;BME280;11972;48.078;11.876;2023-02-04T01:59:15;96299.22;;;3.30;100.00
23589;BME280;11972;48.078;11.876;2023-02-04T02:03:16;96305.00;;;3.45;100.00
23589;BME280;11972;48.078;11.876;2023-02-04T02:07:17;96306.44;;;3.49;100.00
23589;BME280;11972;48.078;11.876;2023-02-04T02:11:17;96317.94;;;3.58;100.00
23589;BME280;11972;48.078;11.876;2023-02-04T02:15:18;96317.25;;;3.67;100.00
23589;BME280;11972;48.078;11.876;2023-02-04T02:19:27;96328.66;;;3.55;100.00
23589;BME280;11972;48.078;11.876;2023-02-04T02:27:44;96340.75;;;3.56;100.00
23589;BME280;11972;48.078;11.876;2023-02-04T02:31:44;96362.84;;;3.52;100.00
23589;BME280;11972;48.078;11.876;2023-02-04T02:35:46;96362.38;;;3.46;100.00
23589;BME280;11972;48.078;11.876;2023-02-04T02:39:49;96362.13;;;3.49;100.00
23589;BME280;11972;48.078;11.876;2023-02-04T02:43:50;96366.41;;;3.62;100.00
23589;BME280;11972;48.078;11.876;2023-02-04T02:47:50;96366.41;;;3.62;100.00
23589;BME280;11972;48.078;11.876;2023-02-04T02:51:51;96377.59;;;3.75;100.00
23589;BME280;11972;48.078;11.876;2023-02-04T02:55:51;96379.25;;;3.87;100.00
23589;BME280;11972;48.078;11.876;2023-02-04T02:59:52;96377.78;;;3.94;100.00
23589;BME280;11972;48.078;11.876;2023-02-04T03:03:52;96377.78;;;3.94;100.00
23589;BME280;11972;48.078;11.876;2023-02-04T03:07:53;96366.19;;;3.87;100.00
23589;BME280;11972;48.078;11.876;2023-02-04T03:11:53;96384.69;;;3.84;100.00
23589;BME280;11972;48.078;11.876;2023-02-04T03:15:54;96386.81;;;3.90;100.00
23589;BME280;11972;48.078;11.876;2023-02-04T03:19:55;96371.03;;;3.92;100.00
23589;BME280;11972;48.078;11.876;2023-02-04T03:23:55;96393.00;;;4.01;100.00
23589;BME280;11972;48.078;11.876;2023-02-04T03:27:57;96395.25;;;4.05;100.00
23589;BME280;11972;48.078;11.876;2023-02-04T03:31:57;96426.50;;;4.07;100.00
23589;BME280;11972;48.078;11.876;2023-02-04T03:35:59;96431.28;;;3.79;100.00
23589;BME280;11972;48.078;11.876;2023-02-04T03:39:59;96446.63;;;3.37;100.00
23589;BME280;11972;48.078;11.876;2023-02-04T03:43:59;96460.81;;;3.11;100.00
23589;BME280;11972;48.078;11.876;2023-02-04T03:48:00;96480.53;;;2.91;100.00
23589;BME280;11972;48.078;11.876;2023-02-04T03:52:01;96475.84;;;2.72;100.00
23589;BME280;11972;48.078;11.876;2023-02-04T03:56:01;96464.38;;;2.62;100.00
23589;BME280;11972;48.078;11.876;2023-02-04T04:00:02;96489.50;;;2.63;100.00
23589;BME280;11972;48.078;11.876;2023-02-04T04:04:03;96508.41;;;2.66;100.00
23589;BME280;11972;48.078;11.876;2023-02-04T04:08:03;96501.31;;;2.68;100.00
23589;BME280;11972;48.078;11.876;2023-02-04T04:12:04;96500.97;;;2.73;100.00
23589;BME280;11972;48.078;11.876;2023-02-04T04:16:04;96499.81;;;2.77;100.00
23589;BME280;11972;48.078;11.876;2023-02-04T04:20:05;96508.75;;;2.86;100.00
23589;BME280;11972;48.078;11.876;2023-02-04T04:24:05;96512.25;;;2.97;100.00
23589;BME280;11972;48.078;11.876;2023-02-04T04:28:06;96515.47;;;3.01;100.00
23589;BME280;11972;48.078;11.876;2023-02-04T04:32:06;96514.06;;;3.08;100.00
23589;BME280;11972;48.078;11.876;2023-02-04T04:36:08;96517.63;;;3.07;100.00
23589;BME280;11972;48.078;11.876;2023-02-04T04:40:12;96505.13;;;2.99;100.00
23589;BME280;11972;48.078;11.876;2023-02-04T04:44:12;96504.81;;;2.80;100.00
23589;BME280;11972;48.078;11.876;2023-02-04T04:48:12;96506.31;;;2.59;100.00
23589;BME280;11972;48.078;11.876;2023-02-04T04:52:13;96518.69;;;2.44;100.00
23589;BME280;11972;48.078;11.876;2023-02-04T04:56:13;96523.94;;;2.31;100.00
23589;BME280;11972;48.078;11.876;2023-02-04T05:00:19;96518.63;;;2.20;100.00
23589;BME280;11972;48.078;11.876;2023-02-04T05:04:19;96532.69;;;2.17;100.00
23589;BME280;11972;48.078;11.876;2023-02-04T05:08:19;96547.13;;;2.10;100.00
23589;BME280;11972;48.078;11.876;2023-02-04T05:12:20;96546.56;;;2.18;100.00
23589;BME280;11972;48.078;11.876;2023-02-04T05:16:20;96551.78;;;2.31;100.00
23589;BME280;11972;48.078;11.876;2023-02-04T05:20:20;96553.94;;;2.49;100.00
23589;BME280;11972;48.078;11.876;2023-02-04T05:24:21;96571.84;;;2.67;100.00
23589;BME280;11972;48.078;11.876;2023-02-04T05:28:21;96578.78;;;2.79;100.00
23589;BME280;11972;48.078;11.876;2023-02-04T05:32:21;96576.19;;;2.79;100.00
23589;BME280;11972;48.078;11.876;2023-02-04T05:36:22;96584.75;;;2.81;100.00
23589;BME280;11972;48.078;11.876;2023-02-04T05:40:22;96602.69;;;2.86;100.00
23589;BME280;11972;48.078;11.876;2023-02-04T05:44:23;96593.09;;;2.86;100.00
23589;BME280;11972;48.078;11.876;2023-02-04T05:48:23;96603.31;;;2.89;100.00
23589;BME280;11972;48.078;11.876;2023-02-04T05:52:23;96618.22;;;2.87;100.00
23589;BME280;11972;48.078;11.876;2023-02-04T05:56:24;96626.31;;;2.84;100.00
23589;BME280;11972;48.078;11.876;2023-02-04T06:00:24;96633.19;;;2.85;100.00
23589;BME280;11972;48.078;11.876;2023-02-04T06:04:24;96642.34;;;2.91;100.00
23589;BME280;11972;48.078;11.876;2023-02-04T06:08:25;96656.75;;;2.96;100.00
23589;BME280;11972;48.078;11.876;2023-02-04T06:12:25;96665.09;;;3.02;100.00
23589;BME280;11972;48.078;11.876;2023-02-04T06:16:25;96671.56;;;3.09;100.00
23589;BME280;11972;48.078;11.876;2023-02-04T06:20:26;96684.50;;;3.10;100.00
23589;BME280;11972;48.078;11.876;2023-02-04T06:24:26;96671.94;;;3.15;100.00
23589;BME280;11972;48.078;11.876;2023-02-04T06:28:27;96680.28;;;3.20;100.00
23589;BME280;11972;48.078;11.876;2023-02-04T06:32:27;96676.75;;;3.21;100.00
23589;BME280;11972;48.078;11.876;2023-02-04T06:36:27;96679.44;;;3.20;100.00
23589;BME280;11972;48.078;11.876;2023-02-04T06:40:27;96684.56;;;3.21;100.00
23589;BME280;11972;48.078;11.876;2023-02-04T06:44:28;96683.00;;;3.19;100.00
23589;BME280;11972;48.078;11.876;2023-02-04T06:48:28;96686.66;;;3.16;100.00
23589;BME280;11972;48.078;11.876;2023-02-04T06:52:28;96690.13;;;3.17;100.00
23589;BME280;11972;48.078;11.876;2023-02-04T06:56:29;96691.66;;;3.19;100.00
23589;BME280;11972;48.078;11.876;2023-02-04T07:00:29;96694.19;;;3.21;100.00
23589;BME280;11972;48.078;11.876;2023-02-04T07:04:33;96695.94;;;3.20;100.00
23589;BME280;11972;48.078;11.876;2023-02-04T07:08:34;96705.34;;;3.23;100.00
23589;BME280;11972;48.078;11.876;2023-02-04T07:12:34;96713.06;;;3.24;100.00
23589;BME280;11972;48.078;11.876;2023-02-04T07:16:35;96719.03;;;3.27;100.00
23589;BME280;11972;48.078;11.876;2023-02-04T07:20:36;96724.75;;;3.32;100.00
23589;BME280;11972;48.078;11.876;2023-02-04T07:24:36;96729.56;;;3.38;100.00
23589;BME280;11972;48.078;11.876;2023-02-04T07:28:36;96740.38;;;3.44;100.00
23589;BME280;11972;48.078;11.876;2023-02-04T07:32:37;96740.69;;;3.53;100.00
23589;BME280;11972;48.078;11.876;2023-02-04T07:36:37;96755.19;;;3.57;100.00
23589;BME280;11972;48.078;11.876;2023-02-04T07:40:37;96748.81;;;3.61;100.00
23589;BME280;11972;48.078;11.876;2023-02-04T07:44:38;96751.72;;;3.69;100.00
23589;BME280;11972;48.078;11.876;2023-02-04T07:48:38;96757.44;;;3.74;100.00
23589;BME280;11972;48.078;11.876;2023-02-04T07:52:39;96755.69;;;3.75;100.00
23589;BME280;11972;48.078;11.876;2023-02-04T07:56:39;96765.06;;;3.77;100.00
23589;BME280;11972;48.078;11.876;2023-02-04T08:00:39;96777.59;;;3.85;100.00
23589;BME280;11972;48.078;11.876;2023-02-04T08:04:40;96774.84;;;3.86;100.00
23589;BME280;11972;48.078;11.876;2023-02-04T08:08:40;96784.38;;;3.87;100.00
23589;BME280;11972;48.078;11.876;2023-02-04T08:12:40;96785.84;;;3.91;100.00
23589;BME280;11972;48.078;11.876;2023-02-04T08:16:41;96796.28;;;3.91;100.00
23589;BME280;11972;48.078;11.876;2023-02-04T08:20:42;96793.97;;;4.00;100.00
23589;BME280;11972;48.078;11.876;2023-02-04T08:24:42;96796.84;;;4.08;100.00
23589;BME280;11972;48.078;11.876;2023-02-04T08:28:43;96805.19;;;4.13;100.00
23589;BME280;11972;48.078;11.876;2023-02-04T08:32:43;96812.91;;;4.14;100.00
23589;BME280;11972;48.078;11.876;2023-02-04T08:36:44;96813.03;;;4.13;100.00
23589;BME280;11972;48.078;11.876;2023-02-04T08:40:44;96819.44;;;4.09;100.00
23589;BME280;11972;48.078;11.876;2023-02-04T08:44:44;96818.19;;;4.02;100.00
23589;BME280;11972;48.078;11.876;2023-02-04T08:48:45;96820.53;;;3.93;100.00
23589;BME280;11972;48.078;11.876;2023-02-04T08:52:45;96817.84;;;3.82;100.00
23589;BME280;11972;48.078;11.876;2023-02-04T08:56:46;96829.75;;;3.86;100.00
23589;BME280;11972;48.078;11.876;2023-02-04T09:00:46;96826.50;;;3.95;100.00
23589;BME280;11972;48.078;11.876;2023-02-04T09:04:47;96828.44;;;4.05;100.00
23589;BME280;11972;48.078;11.876;2023-02-04T09:08:47;96825.66;;;4.19;100.00
23589;BME280;11972;48.078;11.876;2023-02-04T09:12:48;96833.34;;;4.33;100.00
23589;BME280;11972;48.078;11.876;2023-02-04T09:16:48;96824.13;;;4.40;100.00
23589;BME280;11972;48.078;11.876;2023-02-04T09:20:49;96836.13;;;4.43;100.00
23589;BME280;11972;48.078;11.876;2023-02-04T09:24:49;96839.81;;;4.40;100.00
23589;BME280;11972;48.078;11.876;2023-02-04T09:28:50;96854.09;;;4.47;100.00
23589;BME280;11972;48.078;11.876;2023-02-04T09:32:50;96854.38;;;4.56;100.00
23589;BME280;11972;48.078;11.876;2023-02-04T09:36:50;96853.69;;;4.65;100.00
23589;BME280;11972;48.078;11.876;2023-02-04T09:40:57;96853.78;;;4.87;100.00
23589;BME280;11972;48.078;11.876;2023-02-04T09:44:59;96854.28;;;4.92;100.00
23589;BME280;11972;48.078;11.876;2023-02-04T09:49:02;96867.03;;;4.73;100.00
23589;BME280;11972;48.078;11.876;2023-02-04T09:53:04;96882.44;;;4.54;100.00
23589;BME280;11972;48.078;11.876;2023-02-04T09:57:14;96888.91;;;4.00;100.00
23589;BME280;11972;48.078;11.876;2023-02-04T10:01:17;96904.22;;;3.68;100.00
23589;BME280;11972;48.078;11.876;2023-02-04T10:05:28;96901.94;;;3.38;100.00
23589;BME280;11972;48.078;11.876;2023-02-04T10:09:29;96927.44;;;2.82;100.00
23589;BME280;11972;48.078;11.876;2023-02-04T10:13:35;96930.47;;;2.34;100.00
23589;BME280;11972;48.078;11.876;2023-02-04T10:17:36;96925.88;;;2.52;100.00
23589;BME280;11972;48.078;11.876;2023-02-04T10:21:38;96933.75;;;2.65;100.00
23589;BME280;11972;48.078;11.876;2023-02-04T10:25:39;96937.66;;;2.72;100.00
23589;BME280;11972;48.078;11.876;2023-02-04T10:29:39;96946.34;;;2.85;100.00
23589;BME280;11972;48.078;11.876;2023-02-04T10:33:41;96935.91;;;2.85;100.00
23589;BME280;11972;48.078;11.876;2023-02-04T10:37:41;96920.28;;;3.11;100.00
23589;BME280;11972;48.078;11.876;2023-02-04T10:41:56;96914.47;;;3.45;100.00
23589;BME280;11972;48.078;11.876;2023-02-04T10:46:00;96927.31;;;3.48;100.00
23589;BME280;11972;48.078;11.876;2023-02-04T10:50:14;96921.31;;;3.08;100.00
23589;BME280;11972;48.078;11.876;2023-02-04T10:54:14;96913.59;;;3.07;100.00
23589;BME280;11972;48.078;11.876;2023-02-04T10:58:32;96926.81;;;2.91;100.00
23589;BME280;11972;48.078;11.876;2023-02-04T11:02:42;96918.44;;;2.19;100.00
23589;BME280;11972;48.078;11.876;2023-02-04T11:06:43;96923.66;;;2.19;100.00
23589;BME280;11972;48.078;11.876;2023-02-04T11:10:44;96924.84;;;2.13;100.00
23589;BME280;11972;48.078;11.876;2023-02-04T11:14:54;96926.63;;;2.13;100.00
23589;BME280;11972;48.078;11.876;2023-02-04T11:18:57;96921.09;;;2.32;100.00
23589;BME280;11972;48.078;11.876;2023-02-04T11:27:36;96926.00;;;2.63;100.00
23589;BME280;11972;48.078;11.876;2023-02-04T11:31:56;96925.28;;;3.01;100.00
23589;BME280;11972;48.078;11.876;2023-02-04T11:36:03;96927.44;;;3.34;100.00
23589;BME280;11972;48.078;11.876;2023-02-04T11:40:21;96929.31;;;3.70;100.00
23589;BME280;11972;48.078;11.876;2023-02-04T11:44:22;96924.50;;;3.77;100.00
23589;BME280;11972;48.078;11.876;2023-02-04T11:48:24;96928.66;;;3.92;100.00
23589;BME280;11972;48.078;11.876;2023-02-04T11:52:26;96929.03;;;4.25;100.00
23589;BME280;11972;48.078;11.876;2023-02-04T11:56:28;96923.63;;;4.39;100.00
23589;BME280;11972;48.078;11.876;2023-02-04T12:00:31;96923.38;;;4.18;100.00
23589;BME280;11972;48.078;11.876;2023-02-04T12:04:32;96924.91;;;3.96;100.00
23589;BME280;11972;48.078;11.876;2023-02-04T12:08:34;96911.06;;;3.94;100.00
23589;BME280;11972;48.078;11.876;2023-02-04T12:12:41;96906.03;;;4.17;100.00
23589;BME280;11972;48.078;11.876;2023-02-04T12:16:47;96903.91;;;4.22;100.00
23589;BME280;11972;48.078;11.876;2023-02-04T12:20:48;96904.78;;;4.10;100.00
23589;BME280;11972;48.078;11.876;2023-02-04T12:24:48;96906.19;;;3.90;100.00
23589;BME280;11972;48.078;11.876;2023-02-04T12:28:49;96905.03;;;3.81;100.00
23589;BME280;11972;48.078;11.876;2023-02-04T12:32:49;96908.78;;;3.90;100.00
23589;BME280;11972;48.078;11.876;2023-02-04T12:36:50;96913.84;;;3.80;100.00
23589;BME280;11972;48.078;11.876;2023-02-04T12:40:50;96908.81;;;3.64;100.00
23589;BME280;11972;48.078;11.876;2023-02-04T12:44:50;96906.09;;;3.66;100.00
23589;BME280;11972;48.078;11.876;2023-02-04T12:48:51;96908.59;;;3.80;100.00
23589;BME280;11972;48.078;11.876;2023-02-04T12:52:54;96905.53;;;3.99;100.00
23589;BME280;11972;48.078;11.876;2023-02-04T12:56:54;96898.69;;;4.22;100.00
23589;BME280;11972;48.078;11.876;2023-02-04T13:00:57;96895.78;;;4.14;100.00
23589;BME280;11972;48.078;11.876;2023-02-04T13:04:57;96898.41;;;4.38;100.00
23589;BME280;11972;48.078;11.876;2023-02-04T13:08:57;96895.84;;;4.73;100.00
23589;BME280;11972;48.078;11.876;2023-02-04T13:12:58;96892.72;;;4.57;100.00
23589;BME280;11972;48.078;11.876;2023-02-04T13:16:59;96902.59;;;4.40;100.00
23589;BME280;11972;48.078;11.876;2023-02-04T13:20:59;96903.56;;;4.27;100.00
23589;BME280;11972;48.078;11.876;2023-02-04T13:25:00;96910.59;;;4.26;100.00
23589;BME280;11972;48.078;11.876;2023-02-04T13:29:01;96919.81;;;4.56;100.00
23589;BME280;11972;48.078;11.876;2023-02-04T13:33:01;96917.94;;;4.69;100.00
23589;BME280;11972;48.078;11.876;2023-02-04T13:37:02;96923.75;;;4.37;100.00
23589;BME280;11972;48.078;11.876;2023-02-04T13:41:03;96935.09;;;4.25;100.00
23589;BME280;11972;48.078;11.876;2023-02-04T13:45:04;96937.78;;;4.23;100.00
23589;BME280;11972;48.078;11.876;2023-02-04T13:49:06;96936.47;;;4.18;100.00
23589;BME280;11972;48.078;11.876;2023-02-04T13:53:07;96933.19;;;4.27;100.00
23589;BME280;11972;48.078;11.876;2023-02-04T13:57:07;96943.13;;;4.22;100.00
23589;BME280;11972;48.078;11.876;2023-02-04T14:01:12;96951.03;;;3.96;100.00
23589;BME280;11972;48.078;11.876;2023-02-04T14:05:12;96957.22;;;3.83;100.00
23589;BME280;11972;48.078;11.876;2023-02-04T14:09:13;96956.06;;;3.74;100.00
23589;BME280;11972;48.078;11.876;2023-02-04T14:13:13;96961.72;;;3.81;100.00
23589;BME280;11972;48.078;11.876;2023-02-04T14:17:14;96959.53;;;3.87;100.00
23589;BME280;11972;48.078;11.876;2023-02-04T14:21:15;96965.25;;;3.92;100.00
23589;BME280;11972;48.078;11.876;2023-02-04T14:25:16;96972.38;;;3.90;100.00
23589;BME280;11972;48.078;11.876;2023-02-04T14:29:16;96980.13;;;3.79;100.00
23589;BME280;11972;48.078;11.876;2023-02-04T14:33:17;96974.47;;;3.60;100.00
23589;BME280;11972;48.078;11.876;2023-02-04T14:37:17;96974.47;;;3.47;100.00
23589;BME280;11972;48.078;11.876;2023-02-04T14:41:17;96983.84;;;3.49;100.00
23589;BME280;11972;48.078;11.876;2023-02-04T14:45:20;96981.78;;;3.55;100.00
23589;BME280;11972;48.078;11.876;2023-02-04T14:49:20;96981.88;;;3.53;100.00
23589;BME280;11972;48.078;11.876;2023-02-04T14:53:21;96987.22;;;3.52;100.00
23589;BME280;11972;48.078;11.876;2023-02-04T14:57:21;96993.28;;;3.52;100.00
23589;BME280;11972;48.078;11.876;2023-02-04T15:01:22;96985.94;;;3.57;100.00
23589;BME280;11972;48.078;11.876;2023-02-04T15:05:22;96988.56;;;3.57;100.00
23589;BME280;11972;48.078;11.876;2023-02-04T15:09:23;96995.56;;;3.44;100.00
23589;BME280;11972;48.078;11.876;2023-02-04T15:13:24;96997.13;;;3.46;100.00
23589;BME280;11972;48.078;11.876;2023-02-04T15:17:24;96999.75;;;3.46;100.00
23589;BME280;11972;48.078;11.876;2023-02-04T15:21:25;97003.72;;;3.52;100.00
23589;BME280;11972;48.078;11.876;2023-02-04T15:25:26;97010.31;;;3.58;100.00
23589;BME280;11972;48.078;11.876;2023-02-04T15:29:27;97002.25;;;3.61;100.00
23589;BME280;11972;48.078;11.876;2023-02-04T15:33:28;97013.84;;;3.57;100.00
23589;BME280;11972;48.078;11.876;2023-02-04T15:37:28;97014.28;;;3.51;100.00
23589;BME280;11972;48.078;11.876;2023-02-04T15:41:28;97017.28;;;3.44;100.00
23589;BME280;11972;48.078;11.876;2023-02-04T15:45:29;97021.00;;;3.28;100.00
23589;BME280;11972;48.078;11.876;2023-02-04T15:49:29;97033.84;;;3.18;100.00
23589;BME280;11972;48.078;11.876;2023-02-04T15:53:29;97042.81;;;3.14;100.00
23589;BME280;11972;48.078;11.876;2023-02-04T15:57:30;97045.81;;;3.08;100.00
23589;BME280;11972;48.078;11.876;2023-02-04T16:01:30;97048.72;;;3.03;100.00
23589;BME280;11972;48.078;11.876;2023-02-04T16:05:30;97047.44;;;2.96;100.00
23589;BME280;11972;48.078;11.876;2023-02-04T16:09:31;97043.34;;;2.92;100.00
23589;BME280;11972;48.078;11.876;2023-02-04T16:13:31;97039.06;;;2.91;100.00
23589;BME280;11972;48.078;11.876;2023-02-04T16:17:31;97049.06;;;2.84;100.00
23589;BME280;11972;48.078;11.876;2023-02-04T16:21:32;97048.16;;;2.71;100.00
23589;BME280;11972;48.078;11.876;2023-02-04T16:25:32;97058.72;;;2.55;100.00
23589;BME280;11972;48.078;11.876;2023-02-04T16:29:33;97055.28;;;2.40;100.00
23589;BME280;11972;48.078;11.876;2023-02-04T16:33:33;97067.41;;;2.27;100.00
23589;BME280;11972;48.078;11.876;2023-02-04T16:37:34;97069.81;;;2.16;100.00
23589;BME280;11972;48.078;11.876;2023-02-04T16:41:36;97074.66;;;1.93;100.00
23589;BME280;11972;48.078;11.876;2023-02-04T16:45:36;97089.13;;;1.69;100.00
23589;BME280;11972;48.078;11.876;2023-02-04T16:49:37;97096.22;;;1.51;100.00
23589;BME280;11972;48.078;11.876;2023-02-04T16:53:38;97096.91;;;1.39;100.00
23589;BME280;11972;48.078;11.876;2023-02-04T16:57:38;97106.50;;;1.38;100.00
23589;BME280;11972;48.078;11.876;2023-02-04T17:01:40;97100.19;;;1.42;100.00
23589;BME280;11972;48.078;11.876;2023-02-04T17:05:41;97098.28;;;1.30;100.00
23589;BME280;11972;48.078;11.876;2023-02-04T17:09:41;97101.72;;;1.15;100.00
23589;BME280;11972;48.078;11.876;2023-02-04T17:13:42;97111.25;;;1.16;100.00
23589;BME280;11972;48.078;11.876;2023-02-04T17:17:43;97112.75;;;1.20;100.00
23589;BME280;11972;48.078;11.876;2023-02-04T17:21:44;97114.41;;;1.21;100.00
23589;BME280;11972;48.078;11.876;2023-02-04T17:25:45;97125.97;;;1.31;100.00
23589;BME280;11972;48.078;11.876;2023-02-04T17:29:45;97139.34;;;1.25;100.00
23589;BME280;11972;48.078;11.876;2023-02-04T17:33:45;97136.59;;;1.12;100.00
23589;BME280;11972;48.078;11.876;2023-02-04T17:37:46;97131.50;;;0.95;100.00
23589;BME280;11972;48.078;11.876;2023-02-04T17:41:46;97126.09;;;0.82;100.00
23589;BME280;11972;48.078;11.876;2023-02-04T17:45:47;97134.72;;;0.67;100.00
23589;BME280;11972;48.078;11.876;2023-02-04T17:49:47;97134.19;;;0.44;100.00
23589;BME280;11972;48.078;11.876;2023-02-04T17:53:47;97132.69;;;0.23;100.00
23589;BME280;11972;48.078;11.876;2023-02-04T17:57:49;97138.09;;;0.03;100.00
23589;BME280;11972;48.078;11.876;2023-02-04T18:01:49;97140.69;;;-0.15;100.00
23589;BME280;11972;48.078;11.876;2023-02-04T18:05:51;97151.56;;;-0.24;100.00
23589;BME280;11972;48.078;11.876;2023-02-04T18:10:09;97156.34;;;-0.34;100.00
23589;BME280;11972;48.078;11.876;2023-02-04T18:14:23;97154.44;;;-0.47;100.00
23589;BME280;11972;48.078;11.876;2023-02-04T18:18:31;97153.34;;;-0.61;100.00
23589;BME280;11972;48.078;11.876;2023-02-04T18:22:31;97159.25;;;-0.76;100.00
23589;BME280;11972;48.078;11.876;2023-02-04T18:26:32;97155.78;;;-0.94;100.00
23589;BME280;11972;48.078;11.876;2023-02-04T18:30:33;97149.63;;;-1.10;100.00
23589;BME280;11972;48.078;11.876;2023-02-04T18:34:45;97158.19;;;-1.27;100.00
23589;BME280;11972;48.078;11.876;2023-02-04T18:38:46;97150.19;;;-1.41;100.00
23589;BME280;11972;48.078;11.876;2023-02-04T18:42:46;97146.53;;;-1.56;100.00
23589;BME280;11972;48.078;11.876;2023-02-04T18:46:47;97155.91;;;-1.72;100.00
23589;BME280;11972;48.078;11.876;2023-02-04T18:50:49;97164.97;;;-1.83;100.00
23589;BME280;11972;48.078;11.876;2023-02-04T18:54:55;97153.44;;;-1.96;100.00
23589;BME280;11972;48.078;11.876;2023-02-04T18:58:56;97159.59;;;-1.98;100.00
23589;BME280;11972;48.078;11.876;2023-02-04T19:02:59;97154.16;;;-1.92;100.00
23589;BME280;11972;48.078;11.876;2023-02-04T19:07:00;97162.97;;;-1.96;100.00
23589;BME280;11972;48.078;11.876;2023-02-04T19:11:00;97159.75;;;-2.02;100.00
23589;BME280;11972;48.078;11.876;2023-02-04T19:15:14;97164.66;;;-2.16;100.00
23589;BME280;11972;48.078;11.876;2023-02-04T19:19:37;97166.19;;;-2.32;100.00
23589;BME280;11972;48.078;11.876;2023-02-04T19:23:37;97163.28;;;-2.45;100.00
23589;BME280;11972;48.078;11.876;2023-02-04T19:27:48;97178.00;;;-2.47;100.00
23589;BME280;11972;48.078;11.876;2023-02-04T19:31:53;97172.13;;;-2.51;100.00
23589;BME280;11972;48.078;11.876;2023-02-04T19:35:54;97174.84;;;-2.54;100.00
23589;BME280;11972;48.078;11.876;2023-02-04T19:39:55;97166.97;;;-2.51;100.00
23589;BME280;11972;48.078;11.876;2023-02-04T19:52:35;97164.06;;;-2.65;100.00
23589;BME280;11972;48.078;11.876;2023-02-04T19:56:38;97167.78;;;-2.72;100.00
23589;BME280;11972;48.078;11.876;2023-02-04T20:04:58;97170.28;;;-2.91;100.00
23589;BME280;11972;48.078;11.876;2023-02-04T20:13:11;97167.91;;;-2.97;100.00
23589;BME280;11972;48.078;11.876;2023-02-04T20:21:35;97172.06;;;-3.15;100.00
23589;BME280;11972;48.078;11.876;2023-02-04T20:29:37;97183.41;;;-3.19;100.00
23589;BME280;11972;48.078;11.876;2023-02-04T20:33:47;97183.41;;;-3.19;100.00
23589;BME280;11972;48.078;11.876;2023-02-04T20:37:50;97189.69;;;-3.26;100.00
23589;BME280;11972;48.078;11.876;2023-02-04T20:41:51;97188.13;;;-3.30;100.00
23589;BME280;11972;48.078;11.876;2023-02-04T20:45:58;97195.22;;;-3.35;100.00
23589;BME280;11972;48.078;11.876;2023-02-04T20:49:59;97200.50;;;-3.38;100.00
23589;BME280;11972;48.078;11.876;2023-02-04T20:54:00;97206.56;;;-3.39;100.00
23589;BME280;11972;48.078;11.876;2023-02-04T21:02:17;97211.16;;;-3.47;100.00
23589;BME280;11972;48.078;11.876;2023-02-04T21:10:22;97212.22;;;-3.30;100.00
23589;BME280;11972;48.078;11.876;2023-02-04T21:14:24;97218.97;;;-3.26;100.00
23589;BME280;11972;48.078;11.876;2023-02-04T21:18:25;97222.56;;;-3.30;100.00
23589;BME280;11972;48.078;11.876;2023-02-04T21:22:26;97218.47;;;-3.35;100.00
23589;BME280;11972;48.078;11.876;2023-02-04T21:26:26;97224.72;;;-3.41;100.00
23589;BME280;11972;48.078;11.876;2023-02-04T21:30:29;97231.56;;;-3.40;100.00
23589;BME280;11972;48.078;11.876;2023-02-04T21:34:30;97225.22;;;-3.31;100.00
23589;BME280;11972;48.078;11.876;2023-02-04T21:38:31;97219.44;;;-3.14;100.00
23589;BME280;11972;48.078;11.876;2023-02-04T21:42:31;97222.38;;;-3.02;100.00